createdAt,value
2023-12-31T00:01:51.596Z,100291.09
2023-12-31T00:04:18.932Z,100276.25
2023-12-31T00:06:46.076Z,100263.97
2023-12-31T00:09:13.272Z,100261.38
2023-12-31T00:11:40.464Z,100260.50
2023-12-31T00:14:07.547Z,100246.50
2023-12-31T00:16:35.021Z,100243.00
2023-12-31T00:19:03.481Z,100239.50
2023-12-31T00:21:30.687Z,100221.16
2023-12-31T00:23:57.726Z,100219.38
2023-12-31T00:26:24.923Z,100210.63
2023-12-31T00:28:51.959Z,100198.41
2023-12-31T00:31:19.771Z,100201.03
2023-12-31T00:33:46.896Z,100195.78
2023-12-31T00:36:13.993Z,100198.38
2023-12-31T00:38:41.536Z,100184.38
2023-12-31T00:41:08.980Z,100166.91
2023-12-31T00:43:36.466Z,100174.78
2023-12-31T00:46:03.720Z,100171.25
2023-12-31T00:48:30.879Z,100173.00
2023-12-31T00:50:57.905Z,100165.13
2023-12-31T00:53:25.069Z,100167.72
2023-12-31T00:55:52.163Z,100159.84
2023-12-31T00:58:19.782Z,100164.25
2023-12-31T01:00:46.899Z,100166.88
2023-12-31T01:03:14.370Z,100167.75
2023-12-31T01:05:41.705Z,100150.25
2023-12-31T01:08:09.799Z,100152.00
2023-12-31T01:10:37.286Z,100147.63
2023-12-31T01:13:04.874Z,100138.88
2023-12-31T01:15:32.197Z,100126.66
2023-12-31T01:18:00.066Z,100131.03
2023-12-31T01:20:27.096Z,100126.66
2023-12-31T01:22:54.220Z,100117.03
2023-12-31T01:25:21.421Z,100098.69
2023-12-31T01:27:48.759Z,100101.31
2023-12-31T01:30:16.103Z,100101.31
2023-12-31T01:32:43.757Z,100098.69
2023-12-31T01:35:10.902Z,100094.28
2023-12-31T01:37:38.021Z,100088.19
2023-12-31T01:40:06.066Z,100089.94
2023-12-31T01:42:33.160Z,100089.06
2023-12-31T01:45:00.208Z,100068.06
2023-12-31T01:47:27.503Z,100064.59
2023-12-31T01:49:54.827Z,100066.34
2023-12-31T01:52:23.451Z,100062.84
2023-12-31T01:54:50.898Z,100057.59
2023-12-31T01:57:18.200Z,100061.06
2023-12-31T01:59:46.362Z,100048.81
2023-12-31T02:02:14.116Z,100045.31
2023-12-31T02:04:41.386Z,100043.56
2023-12-31T02:07:08.782Z,100040.06
2023-12-31T02:09:36.048Z,100031.34
2023-12-31T02:12:03.765Z,100039.19
2023-12-31T02:14:31.253Z,100037.47
2023-12-31T02:16:58.423Z,100025.22
2023-12-31T02:19:25.637Z,100010.34
2023-12-31T02:21:53.089Z,100012.09
2023-12-31T02:24:22.200Z,100010.34
2023-12-31T02:26:49.482Z,100000.75
2023-12-31T02:29:16.526Z,99987.59
2023-12-31T02:31:43.630Z,99987.59
2023-12-31T02:34:11.025Z,99977.09
2023-12-31T02:36:38.123Z,99980.59
2023-12-31T02:39:05.282Z,99970.09
2023-12-31T02:41:33.357Z,99957.00
2023-12-31T02:44:00.452Z,99951.75
2023-12-31T02:46:27.610Z,99950.88
2023-12-31T02:48:54.867Z,99944.75
2023-12-31T02:51:21.938Z,99933.38
2023-12-31T02:53:48.982Z,99929.88
2023-12-31T02:56:16.173Z,99924.63
2023-12-31T02:58:43.376Z,99923.75
2023-12-31T03:01:10.657Z,99909.78
2023-12-31T03:03:37.903Z,99914.16
2023-12-31T03:06:05.291Z,99903.66
2023-12-31T03:08:32.389Z,99906.28
2023-12-31T03:10:59.697Z,99890.53
2023-12-31T03:13:26.823Z,99888.78
2023-12-31T03:15:54.001Z,99883.53
2023-12-31T03:18:21.912Z,99879.16
2023-12-31T03:20:50.564Z,99859.97
2023-12-31T03:23:17.756Z,99860.84
2023-12-31T03:25:45.426Z,99848.63
2023-12-31T03:28:12.580Z,99845.13
2023-12-31T03:30:39.746Z,99832.03
2023-12-31T03:33:07.132Z,99831.19
2023-12-31T03:35:34.499Z,99825.06
2023-12-31T03:38:01.647Z,99810.22
2023-12-31T03:40:28.960Z,99818.97
2023-12-31T03:42:56.023Z,99805.84
2023-12-31T03:45:23.490Z,99790.09
2023-12-31T03:47:50.784Z,99786.59
2023-12-31T03:50:18.073Z,99797.06
2023-12-31T03:52:45.931Z,99781.31
2023-12-31T03:55:13.818Z,99771.69
2023-12-31T03:57:40.996Z,99772.56
2023-12-31T04:00:09.975Z,99761.19
2023-12-31T04:02:37.561Z,99752.47
2023-12-31T04:05:05.841Z,99750.75
2023-12-31T04:07:33.387Z,99749.03
2023-12-31T04:10:01.450Z,99739.38
2023-12-31T04:12:28.582Z,99741.13
2023-12-31T04:14:55.783Z,99735.88
2023-12-31T04:17:22.925Z,99719.28
2023-12-31T04:19:50.172Z,99718.44
2023-12-31T04:22:18.354Z,99709.69
2023-12-31T04:24:45.475Z,99704.47
2023-12-31T04:27:12.585Z,99693.97
2023-12-31T04:29:39.688Z,99705.34
2023-12-31T04:32:07.156Z,99689.63
2023-12-31T04:34:34.338Z,99687.84
2023-12-31T04:37:01.513Z,99694.84
2023-12-31T04:39:28.599Z,99692.19
2023-12-31T04:41:56.264Z,99686.09
2023-12-31T04:44:23.403Z,99673.84
2023-12-31T04:46:50.628Z,99671.19
2023-12-31T04:49:17.921Z,99672.03
2023-12-31T04:51:45.066Z,99667.66
2023-12-31T04:54:12.453Z,99656.28
2023-12-31T04:56:39.756Z,99655.38
2023-12-31T04:59:06.990Z,99647.53
2023-12-31T05:01:34.512Z,99642.28
2023-12-31T05:04:04.524Z,99639.66
2023-12-31T05:06:31.787Z,99630.00
2023-12-31T05:08:59.412Z,99621.25
2023-12-31T05:11:28.366Z,99621.22
2023-12-31T05:13:55.672Z,99615.97
2023-12-31T05:16:22.849Z,99616.81
2023-12-31T05:18:54.727Z,99609.81
2023-12-31T05:21:22.185Z,99598.44
2023-12-31T05:23:49.442Z,99601.91
2023-12-31T05:26:16.695Z,99611.50
2023-12-31T05:28:43.834Z,99595.75
2023-12-31T05:31:13.929Z,99582.63
2023-12-31T05:33:43.046Z,99574.75
2023-12-31T05:36:10.221Z,99567.72
2023-12-31T05:38:37.568Z,99577.34
2023-12-31T05:41:04.853Z,99552.88
2023-12-31T05:43:32.028Z,99551.97
2023-12-31T05:45:59.282Z,99554.59
2023-12-31T05:48:26.568Z,99554.59
2023-12-31T05:50:53.932Z,99552.84
2023-12-31T05:53:21.159Z,99542.31
2023-12-31T05:55:48.741Z,99541.44
2023-12-31T05:58:16.013Z,99559.78
2023-12-31T06:00:43.386Z,99548.41
2023-12-31T06:03:10.737Z,99535.25
2023-12-31T06:05:38.144Z,99533.50
2023-12-31T06:08:06.644Z,99526.50
2023-12-31T06:10:33.831Z,99517.75
2023-12-31T06:13:01.464Z,99521.25
2023-12-31T06:15:28.732Z,99522.13
2023-12-31T06:17:56.113Z,99515.16
2023-12-31T06:20:23.385Z,99516.06
2023-12-31T06:22:50.433Z,99519.53
2023-12-31T06:25:17.569Z,99516.91
2023-12-31T06:27:44.714Z,99515.19
2023-12-31T06:30:12.389Z,99503.75
2023-12-31T06:32:39.913Z,99498.50
2023-12-31T06:35:08.664Z,99498.47
2023-12-31T06:37:35.748Z,99483.59
2023-12-31T06:40:03.187Z,99470.44
2023-12-31T06:42:30.404Z,99470.41
2023-12-31T06:44:57.416Z,99458.13
2023-12-31T06:47:24.591Z,99445.78
2023-12-31T06:49:54.015Z,99457.13
2023-12-31T06:52:21.375Z,99449.19
2023-12-31T06:54:48.454Z,99447.38
2023-12-31T06:57:15.617Z,99439.47
2023-12-31T06:59:43.017Z,99441.09
2023-12-31T07:02:10.123Z,99440.16
2023-12-31T07:04:37.422Z,99436.59
2023-12-31T07:07:04.907Z,99432.06
2023-12-31T07:09:34.059Z,99427.66
2023-12-31T07:12:01.244Z,99417.94
2023-12-31T07:14:28.415Z,99417.84
2023-12-31T07:16:56.651Z,99416.91
2023-12-31T07:19:23.877Z,99407.19
2023-12-31T07:21:51.047Z,99409.72
2023-12-31T07:24:18.083Z,99384.31
2023-12-31T07:26:45.120Z,99385.97
2023-12-31T07:29:12.398Z,99387.66
2023-12-31T07:31:40.520Z,99391.13
2023-12-31T07:34:08.578Z,99382.38
2023-12-31T07:36:36.133Z,99376.22
2023-12-31T07:39:05.270Z,99374.47
2023-12-31T07:41:32.726Z,99385.72
2023-12-31T07:44:01.275Z,99367.25
2023-12-31T07:46:30.102Z,99382.06
2023-12-31T07:48:57.953Z,99387.25
2023-12-31T07:51:25.296Z,99377.56
2023-12-31T07:53:53.478Z,99375.78
2023-12-31T07:56:20.843Z,99369.56
2023-12-31T07:58:48.135Z,99363.38
2023-12-31T08:01:15.489Z,99368.66
2023-12-31T08:03:42.745Z,99372.13
2023-12-31T08:06:11.275Z,99370.41
2023-12-31T08:08:38.399Z,99366.06
2023-12-31T08:11:05.615Z,99360.91
2023-12-31T08:13:32.803Z,99369.78
2023-12-31T08:16:00.648Z,99369.94
2023-12-31T08:18:27.898Z,99375.28
2023-12-31T08:20:54.994Z,99366.66
2023-12-31T08:23:22.061Z,99371.13
2023-12-31T08:25:49.829Z,99365.13
2023-12-31T08:28:16.998Z,99362.59
2023-12-31T08:30:44.952Z,99369.66
2023-12-31T08:33:12.467Z,99367.94
2023-12-31T08:35:40.905Z,99367.84
2023-12-31T08:38:07.993Z,99381.78
2023-12-31T08:40:35.976Z,99372.09
2023-12-31T08:43:04.730Z,99358.06
2023-12-31T08:45:33.881Z,99362.44
2023-12-31T08:48:01.259Z,99366.91
2023-12-31T08:50:30.423Z,99357.31
2023-12-31T08:52:57.704Z,99362.59
2023-12-31T08:55:25.104Z,99365.25
2023-12-31T08:57:52.503Z,99360.94
2023-12-31T09:00:20.127Z,99379.41
2023-12-31T09:02:48.508Z,99388.16
2023-12-31T09:05:15.940Z,99371.53
2023-12-31T09:07:43.570Z,99388.22
2023-12-31T09:10:11.300Z,99385.59
2023-12-31T09:12:38.836Z,99385.66
2023-12-31T09:15:07.539Z,99400.59
2023-12-31T09:17:37.238Z,99397.94
2023-12-31T09:20:07.836Z,99393.53
2023-12-31T09:22:35.264Z,99402.28
2023-12-31T09:25:03.456Z,99393.53
2023-12-31T09:27:30.856Z,99404.91
2023-12-31T09:29:57.887Z,99398.72
2023-12-31T09:32:25.166Z,99405.66
2023-12-31T09:34:52.580Z,99414.41
2023-12-31T09:37:20.996Z,99410.78
2023-12-31T09:39:49.262Z,99414.22
2023-12-31T09:42:46.776Z,99415.94
2023-12-31T09:45:15.446Z,99412.44
2023-12-31T09:47:45.102Z,99416.00
2023-12-31T09:50:12.924Z,99417.75
2023-12-31T09:52:42.061Z,99437.94
2023-12-31T09:55:09.998Z,99435.28
2023-12-31T09:57:37.628Z,99437.88
2023-12-31T10:00:08.326Z,99435.09
2023-12-31T10:02:35.503Z,99435.94
2023-12-31T10:05:03.550Z,99430.72
2023-12-31T10:07:30.965Z,99428.09
2023-12-31T10:10:02.026Z,99429.03
2023-12-31T10:12:30.659Z,99423.94
2023-12-31T10:14:57.742Z,99431.94
2023-12-31T10:17:27.051Z,99428.44
2023-12-31T10:19:54.436Z,99424.91
2023-12-31T10:22:23.282Z,99432.78
2023-12-31T10:24:50.410Z,99416.16
2023-12-31T10:27:17.460Z,99418.78
2023-12-31T10:29:44.694Z,99421.25
2023-12-31T10:32:11.770Z,99417.00
2023-12-31T10:34:41.363Z,99424.09
2023-12-31T10:37:09.340Z,99417.19
2023-12-31T10:39:38.102Z,99420.81
2023-12-31T10:42:07.099Z,99436.59
2023-12-31T10:44:37.260Z,99427.69
2023-12-31T10:47:11.274Z,99437.22
2023-12-31T10:49:45.625Z,99436.22
2023-12-31T10:52:16.613Z,99436.91
2023-12-31T10:54:46.996Z,99428.88
2023-12-31T10:57:16.540Z,99434.06
2023-12-31T10:59:44.211Z,99436.53
2023-12-31T11:02:23.162Z,99426.94
2023-12-31T11:04:51.416Z,99435.47
2023-12-31T11:07:20.906Z,99431.78
2023-12-31T11:09:49.992Z,99431.06
2023-12-31T11:12:18.524Z,99433.78
2023-12-31T11:15:12.759Z,99427.50
2023-12-31T11:18:15.428Z,99425.94
2023-12-31T11:21:08.526Z,99438.06
2023-12-31T11:23:53.514Z,99428.56
2023-12-31T11:26:20.646Z,99434.69
2023-12-31T11:28:51.925Z,99449.78
2023-12-31T11:31:21.717Z,99435.88
2023-12-31T11:33:51.483Z,99444.75
2023-12-31T11:36:18.990Z,99438.38
2023-12-31T11:39:00.189Z,99440.94
2023-12-31T11:41:40.354Z,99449.91
2023-12-31T11:44:07.635Z,99441.34
2023-12-31T11:46:47.420Z,99437.00
2023-12-31T11:49:17.959Z,99445.13
2023-12-31T11:51:57.160Z,99462.06
2023-12-31T11:54:45.325Z,99464.97
2023-12-31T11:57:19.336Z,99454.84
2023-12-31T11:59:46.704Z,99450.84
2023-12-31T12:02:13.977Z,99465.16
2023-12-31T12:04:41.456Z,99452.03
2023-12-31T12:07:08.816Z,99472.22
2023-12-31T12:09:37.664Z,99466.34
2023-12-31T12:12:08.166Z,99467.47
2023-12-31T12:14:35.386Z,99472.00
2023-12-31T12:17:06.271Z,99472.97
2023-12-31T12:19:37.824Z,99472.22
2023-12-31T12:22:05.558Z,99468.88
2023-12-31T12:24:32.901Z,99467.28
2023-12-31T12:27:05.578Z,99460.38
2023-12-31T12:29:35.010Z,99463.91
2023-12-31T12:32:04.551Z,99458.66
2023-12-31T12:34:32.083Z,99468.22
2023-12-31T12:37:00.503Z,99477.75
2023-12-31T12:39:27.643Z,99471.63
2023-12-31T12:41:55.206Z,99470.66
2023-12-31T12:44:25.439Z,99470.59
2023-12-31T12:46:53.371Z,99474.13
2023-12-31T12:49:21.440Z,99478.44
2023-12-31T12:51:48.974Z,99473.19
2023-12-31T12:54:16.414Z,99474.00
2023-12-31T12:56:46.063Z,99471.41
2023-12-31T12:59:13.427Z,99475.88
2023-12-31T13:01:40.756Z,99468.88
2023-12-31T13:04:12.253Z,99479.13
2023-12-31T13:06:40.221Z,99470.84
2023-12-31T13:09:12.431Z,99469.81
2023-12-31T13:11:39.816Z,99474.88
2023-12-31T13:14:07.577Z,99466.97
2023-12-31T13:16:43.828Z,99465.06
2023-12-31T13:19:17.109Z,99460.59
2023-12-31T13:21:44.464Z,99463.16
2023-12-31T13:24:11.635Z,99467.47
2023-12-31T13:26:38.822Z,99456.91
2023-12-31T13:29:06.026Z,99462.22
2023-12-31T13:31:35.320Z,99464.91
2023-12-31T13:34:03.367Z,99460.38
2023-12-31T13:36:31.491Z,99470.81
2023-12-31T13:38:58.774Z,99456.84
2023-12-31T13:41:27.104Z,99463.88
2023-12-31T13:43:54.478Z,99464.72
2023-12-31T13:46:21.576Z,99453.34
2023-12-31T13:48:48.833Z,99456.84
2023-12-31T13:51:16.191Z,99453.28
2023-12-31T13:53:43.505Z,99453.22
2023-12-31T13:56:10.562Z,99448.91
2023-12-31T13:58:37.718Z,99457.84
2023-12-31T14:01:05.438Z,99454.50
2023-12-31T14:03:33.841Z,99451.94
2023-12-31T14:06:01.029Z,99456.38
2023-12-31T14:08:28.225Z,99451.22
2023-12-31T14:10:55.410Z,99457.44
2023-12-31T14:13:22.627Z,99445.16
2023-12-31T14:15:49.991Z,99454.88
2023-12-31T14:18:17.273Z,99454.09
2023-12-31T14:20:44.576Z,99452.47
2023-12-31T14:23:12.359Z,99455.22
2023-12-31T14:25:39.759Z,99454.44
2023-12-31T14:28:07.104Z,99457.09
2023-12-31T14:30:34.644Z,99460.59
2023-12-31T14:33:01.972Z,99459.72
2023-12-31T14:35:29.531Z,99462.31
2023-12-31T14:37:56.951Z,99457.91
2023-12-31T14:40:24.115Z,99459.63
2023-12-31T14:42:51.639Z,99457.81
2023-12-31T14:45:18.816Z,99456.09
2023-12-31T14:47:46.047Z,99463.09
2023-12-31T14:50:13.485Z,99464.88
2023-12-31T14:52:40.661Z,99465.78
2023-12-31T14:55:08.477Z,99452.66
2023-12-31T14:57:35.836Z,99463.19
2023-12-31T15:00:06.041Z,99457.09
2023-12-31T15:02:33.331Z,99457.09
2023-12-31T15:05:07.104Z,99457.00
2023-12-31T15:07:42.250Z,99458.75
2023-12-31T15:10:09.560Z,99456.13
2023-12-31T15:12:36.869Z,99469.25
2023-12-31T15:15:05.650Z,99460.53
2023-12-31T15:17:33.072Z,99446.66
2023-12-31T15:20:00.424Z,99460.66
2023-12-31T15:22:30.008Z,99454.56
2023-12-31T15:24:57.495Z,99463.38
2023-12-31T15:27:25.005Z,99465.13
2023-12-31T15:29:52.138Z,99461.72
2023-12-31T15:32:19.302Z,99467.91
2023-12-31T15:34:46.423Z,99463.59
2023-12-31T15:37:13.685Z,99463.66
2023-12-31T15:39:42.433Z,99454.13
2023-12-31T15:42:10.044Z,99468.13
2023-12-31T15:44:37.104Z,99453.38
2023-12-31T15:47:04.715Z,99442.91
2023-12-31T15:49:33.002Z,99460.41
2023-12-31T15:52:00.388Z,99449.91
2023-12-31T15:54:28.120Z,99461.28
2023-12-31T15:56:55.328Z,99451.63
2023-12-31T15:59:22.646Z,99463.81
2023-12-31T16:01:50.227Z,99467.25
2023-12-31T16:04:17.544Z,99470.72
2023-12-31T16:06:44.706Z,99470.75
2023-12-31T16:09:12.193Z,99469.84
2023-12-31T16:11:39.405Z,99473.31
2023-12-31T16:14:06.536Z,99461.09
2023-12-31T16:16:34.917Z,99457.59
2023-12-31T16:19:02.745Z,99462.88
2023-12-31T16:21:29.976Z,99466.38
2023-12-31T16:23:57.250Z,99478.63
2023-12-31T16:26:24.864Z,99463.75
2023-12-31T16:28:52.275Z,99472.47
2023-12-31T16:31:19.595Z,99465.50
2023-12-31T16:33:47.019Z,99462.84
2023-12-31T16:36:14.237Z,99454.16
2023-12-31T16:38:42.069Z,99465.53
2023-12-31T16:41:09.317Z,99459.41
2023-12-31T16:43:39.109Z,99461.16
2023-12-31T16:46:06.582Z,99468.09
2023-12-31T16:48:33.803Z,99459.38
2023-12-31T16:51:01.167Z,99465.47
2023-12-31T16:53:28.222Z,99463.75
2023-12-31T16:55:58.544Z,99468.09
2023-12-31T16:58:25.820Z,99457.66
2023-12-31T17:00:55.183Z,99453.25
2023-12-31T17:03:22.674Z,99453.28
2023-12-31T17:05:52.811Z,99455.91
2023-12-31T17:08:20.237Z,99459.41
2023-12-31T17:10:47.671Z,99458.53
2023-12-31T17:13:14.953Z,99461.19
2023-12-31T17:15:42.265Z,99458.59
2023-12-31T17:18:09.778Z,99471.66
2023-12-31T17:20:37.159Z,99475.97
2023-12-31T17:23:04.554Z,99456.72
2023-12-31T17:25:31.843Z,99460.16
2023-12-31T17:27:58.967Z,99467.97
2023-12-31T17:30:26.182Z,99472.28
2023-12-31T17:32:53.522Z,99479.28
2023-12-31T17:35:21.300Z,99481.03
2023-12-31T17:37:49.740Z,99484.50
2023-12-31T17:40:17.404Z,99479.25
2023-12-31T17:42:44.581Z,99493.25
2023-12-31T17:45:11.785Z,99481.03
2023-12-31T17:47:38.863Z,99479.25
2023-12-31T17:50:07.075Z,99482.75
2023-12-31T17:52:34.897Z,99494.13
2023-12-31T17:55:02.028Z,99488.00
2023-12-31T17:57:29.186Z,99475.81
2023-12-31T17:59:56.412Z,99488.06
2023-12-31T18:02:24.702Z,99492.44
2023-12-31T18:04:52.034Z,99492.47
2023-12-31T18:07:20.363Z,99495.94
2023-12-31T18:09:47.815Z,99496.78
2023-12-31T18:12:15.629Z,99491.56
2023-12-31T18:14:42.867Z,99504.66
2023-12-31T18:17:10.457Z,99500.34
2023-12-31T18:19:39.883Z,99503.03
2023-12-31T18:22:07.462Z,99509.13
2023-12-31T18:24:35.125Z,99504.75
2023-12-31T18:27:02.305Z,99494.22
2023-12-31T18:29:29.535Z,99499.44
2023-12-31T18:31:56.841Z,99505.50
2023-12-31T18:34:23.962Z,99516.88
2023-12-31T18:36:52.690Z,99512.50
2023-12-31T18:39:22.971Z,99515.09
2023-12-31T18:41:50.769Z,99515.09
2023-12-31T18:44:18.073Z,99525.56
2023-12-31T18:46:45.448Z,99526.41
2023-12-31T18:49:12.808Z,99525.56
2023-12-31T18:51:42.547Z,99527.28
2023-12-31T18:54:11.898Z,99523.81
2023-12-31T18:56:39.098Z,99530.00
2023-12-31T18:59:08.297Z,99523.00
2023-12-31T19:01:35.733Z,99523.00
2023-12-31T19:04:02.995Z,99524.75
2023-12-31T19:06:30.176Z,99526.56
2023-12-31T19:08:57.285Z,99528.34
2023-12-31T19:11:24.473Z,99522.31
2023-12-31T19:13:52.527Z,99522.25
2023-12-31T19:16:19.575Z,99518.75
2023-12-31T19:18:46.608Z,99526.59
2023-12-31T19:21:19.955Z,99526.59
2023-12-31T19:23:47.187Z,99534.44
2023-12-31T19:26:14.226Z,99530.03
2023-12-31T19:28:41.373Z,99539.66
2023-12-31T19:31:08.446Z,99565.00
2023-12-31T19:33:35.686Z,99538.78
2023-12-31T19:36:03.629Z,99546.66
2023-12-31T19:38:31.672Z,99548.50
2023-12-31T19:40:58.715Z,99563.41
2023-12-31T19:45:54.420Z,99572.31
2023-12-31T19:48:21.538Z,99571.44
2023-12-31T19:50:50.073Z,99575.00
2023-12-31T19:53:17.244Z,99567.13
2023-12-31T19:55:44.489Z,99588.97
2023-12-31T19:58:11.674Z,99573.22
2023-12-31T20:00:39.016Z,99576.69
2023-12-31T20:03:06.764Z,99575.00
2023-12-31T20:05:34.188Z,99571.47
2023-12-31T20:08:01.316Z,99570.63
2023-12-31T20:10:28.607Z,99563.63
2023-12-31T20:12:55.606Z,99561.88
2023-12-31T20:15:22.842Z,99573.25
2023-12-31T20:17:50.393Z,99577.66
2023-12-31T20:20:17.557Z,99585.56
2023-12-31T20:22:44.756Z,99577.75
2023-12-31T20:25:13.765Z,99580.38
2023-12-31T20:27:40.922Z,99595.25
2023-12-31T20:30:09.561Z,99596.97
2023-12-31T20:32:36.860Z,99596.97
2023-12-31T20:35:04.543Z,99610.97
2023-12-31T20:37:32.769Z,99607.50
2023-12-31T20:40:00.358Z,99597.00
2023-12-31T20:42:30.479Z,99608.41
2023-12-31T20:44:57.492Z,99614.56
2023-12-31T20:47:24.836Z,99612.81
2023-12-31T20:49:52.087Z,99624.19
2023-12-31T20:52:19.493Z,99616.38
2023-12-31T20:54:47.616Z,99636.53
2023-12-31T20:57:17.143Z,99632.16
2023-12-31T20:59:45.328Z,99628.66
2023-12-31T21:02:14.012Z,99636.56
2023-12-31T21:04:43.109Z,99640.94
2023-12-31T21:07:10.725Z,99635.72
2023-12-31T21:09:37.983Z,99644.47
2023-12-31T21:12:06.858Z,99647.13
2023-12-31T21:14:34.510Z,99628.78
2023-12-31T21:17:01.677Z,99645.38
2023-12-31T21:19:28.993Z,99639.31
2023-12-31T21:21:57.874Z,99646.28
2023-12-31T21:24:26.381Z,99641.97
2023-12-31T21:26:54.451Z,99641.13
2023-12-31T21:29:22.218Z,99656.88
2023-12-31T21:31:49.343Z,99651.69
2023-12-31T21:34:16.656Z,99652.56
2023-12-31T21:36:44.033Z,99655.22
2023-12-31T21:39:14.128Z,99648.25
2023-12-31T21:41:43.795Z,99645.66
2023-12-31T21:44:13.344Z,99639.59
2023-12-31T21:46:41.272Z,99637.88
2023-12-31T21:49:09.464Z,99643.13
2023-12-31T21:51:36.619Z,99634.47
2023-12-31T21:54:03.958Z,99635.34
2023-12-31T21:56:47.751Z,99641.50
2023-12-31T21:59:18.108Z,99631.06
2023-12-31T22:01:45.286Z,99627.56
2023-12-31T22:04:12.440Z,99636.31
2023-12-31T22:06:39.582Z,99640.69
2023-12-31T22:09:07.807Z,99647.69
2023-12-31T22:11:35.063Z,99650.31
2023-12-31T22:14:02.322Z,99647.69
2023-12-31T22:16:29.516Z,99647.69
2023-12-31T22:18:56.697Z,99659.94
2023-12-31T22:21:23.910Z,99657.28
2023-12-31T22:23:51.003Z,99658.13
2023-12-31T22:26:18.041Z,99659.84
2023-12-31T22:28:45.196Z,99660.72
2023-12-31T22:31:12.359Z,99670.28
2023-12-31T22:33:39.679Z,99674.63
2023-12-31T22:36:07.279Z,99671.06
2023-12-31T22:38:34.775Z,99672.81
2023-12-31T22:41:02.094Z,99677.16
2023-12-31T22:43:29.380Z,99679.75
2023-12-31T22:45:56.429Z,99682.38
2023-12-31T22:48:23.475Z,99677.13
2023-12-31T22:50:50.695Z,99677.97
2023-12-31T22:53:17.863Z,99671.00
2023-12-31T22:55:45.011Z,99699.75
2023-12-31T22:58:12.398Z,99698.00
2023-12-31T23:00:39.511Z,99690.97
2023-12-31T23:03:06.943Z,99695.31
2023-12-31T23:05:34.562Z,99690.94
2023-12-31T23:08:02.064Z,99697.91
2023-12-31T23:10:30.563Z,99701.38
2023-12-31T23:12:57.762Z,99696.09
2023-12-31T23:15:25.180Z,99690.81
2023-12-31T23:17:52.371Z,99698.66
2023-12-31T23:20:19.711Z,99682.06
2023-12-31T23:22:46.861Z,99693.38
2023-12-31T23:25:15.138Z,99683.72
2023-12-31T23:27:42.262Z,99682.84
2023-12-31T23:30:09.913Z,99686.34
2023-12-31T23:32:37.302Z,99687.19
2023-12-31T23:35:06.151Z,99688.91
2023-12-31T23:37:33.471Z,99673.16
2023-12-31T23:40:01.118Z,99691.53
2023-12-31T23:42:28.548Z,99687.16
2023-12-31T23:44:56.282Z,99689.78
2023-12-31T23:47:23.442Z,99696.75
2023-12-31T23:49:50.710Z,99688.88
2023-12-31T23:52:17.744Z,99696.75
2023-12-31T23:54:47.480Z,99692.38
2023-12-31T23:57:15.058Z,99695.00
2023-12-31T23:59:42.062Z,99688.00
